createdAt,value
2019-01-17T00:02:28.899Z,92.40
2019-01-17T00:05:19.981Z,92.30
2019-01-17T00:08:11.335Z,92.30
2019-01-17T00:10:55.469Z,92.40
2019-01-17T00:13:43.825Z,92.30
2019-01-17T00:16:35.156Z,92.20
2019-01-17T00:19:25.028Z,92.40
2019-01-17T00:22:16.180Z,92.50
2019-01-17T00:25:02.898Z,92.50
2019-01-17T00:27:51.204Z,92.60
2019-01-17T00:30:38.413Z,92.40
2019-01-17T00:33:29.839Z,92.60
2019-01-17T00:36:16.573Z,92.50
2019-01-17T00:39:05.340Z,92.50
2019-01-17T00:42:05.464Z,92.50
2019-01-17T00:44:54.124Z,92.50
2019-01-17T00:47:51.284Z,92.40
2019-01-17T00:50:42.496Z,92.30
2019-01-17T00:53:45.822Z,92.20
2019-01-17T00:56:32.591Z,92.20
2019-01-17T00:59:19.373Z,92.10
2019-01-17T01:02:06.641Z,91.90
2019-01-17T01:05:12.531Z,91.70
2019-01-17T01:07:59.206Z,91.90
2019-01-17T01:10:50.419Z,92.20
2019-01-17T01:13:47.567Z,91.90
2019-01-17T01:16:39.143Z,91.90
2019-01-17T01:19:30.246Z,92.00
2019-01-17T01:22:26.173Z,92.10
2019-01-17T01:25:17.405Z,92.00
2019-01-17T01:28:04.083Z,92.10
2019-01-17T01:30:58.515Z,92.20
2019-01-17T01:33:49.927Z,92.30
2019-01-17T01:36:41.012Z,92.30
2019-01-17T01:39:27.844Z,92.50
2019-01-17T01:42:14.700Z,92.50
2019-01-17T01:45:03.010Z,92.30
2019-01-17T01:48:03.432Z,92.00
2019-01-17T01:50:54.762Z,91.50
2019-01-17T01:53:24.372Z,91.60
2019-01-17T01:55:53.821Z,91.20
2019-01-17T01:58:23.268Z,91.20
2019-01-17T02:00:53.049Z,91.00
2019-01-17T02:03:22.413Z,90.50
2019-01-17T02:05:53.602Z,90.50
2019-01-17T02:08:23.037Z,90.00
2019-01-17T02:10:52.476Z,89.20
2019-01-17T02:13:22.043Z,89.40
2019-01-17T02:15:51.425Z,89.20
2019-01-17T02:18:20.946Z,89.20
2019-01-17T02:20:50.359Z,89.40
2019-01-17T02:23:20.140Z,89.50
2019-01-17T02:25:49.583Z,89.70
2019-01-17T02:28:18.969Z,89.50
2019-01-17T02:30:48.577Z,89.00
2019-01-17T02:33:18.018Z,89.20
2019-01-17T02:35:47.390Z,89.40
2019-01-17T02:38:16.786Z,89.20
2019-01-17T02:40:46.240Z,88.90
2019-01-17T02:43:15.657Z,89.10
2019-01-17T02:45:45.193Z,89.00
2019-01-17T02:48:14.564Z,89.70
2019-01-17T02:50:45.474Z,89.60
2019-01-17T02:53:14.901Z,89.40
2019-01-17T02:55:44.606Z,89.50
2019-01-17T02:58:14.008Z,89.40
2019-01-17T03:00:43.439Z,89.50
2019-01-17T03:03:12.858Z,90.20
2019-01-17T03:05:42.513Z,89.90
2019-01-17T03:08:11.899Z,89.80
2019-01-17T03:10:41.328Z,90.10
2019-01-17T03:13:12.165Z,90.10
2019-01-17T03:15:41.540Z,90.20
2019-01-17T03:18:10.930Z,90.30
2019-01-17T03:20:40.747Z,90.20
2019-01-17T03:23:10.095Z,90.20
2019-01-17T03:25:39.564Z,90.20
2019-01-17T03:28:12.306Z,90.20
2019-01-17T03:30:41.722Z,90.00
2019-01-17T03:33:11.182Z,89.80
2019-01-17T03:35:45.736Z,89.90
2019-01-17T03:38:15.188Z,90.00
2019-01-17T03:40:44.658Z,89.80
2019-01-17T03:43:14.050Z,89.60
2019-01-17T03:45:43.573Z,89.90
2019-01-17T03:48:13.026Z,90.00
2019-01-17T03:50:42.529Z,90.00
2019-01-17T03:53:12.010Z,89.70
2019-01-17T03:55:41.802Z,89.80
2019-01-17T03:58:11.313Z,90.00
2019-01-17T04:00:43.391Z,89.50
2019-01-17T04:03:16.036Z,89.30
2019-01-17T04:05:45.441Z,89.50
2019-01-17T04:08:14.916Z,89.60
2019-01-17T04:10:44.323Z,89.80
2019-01-17T04:13:14.009Z,89.70
2019-01-17T04:15:43.386Z,89.80
2019-01-17T04:18:12.771Z,89.50
2019-01-17T04:20:42.181Z,89.80
2019-01-17T04:23:11.629Z,89.70
2019-01-17T04:25:41.026Z,90.00
2019-01-17T04:28:10.435Z,89.50
2019-01-17T04:30:39.874Z,89.50
2019-01-17T04:33:12.051Z,89.60
2019-01-17T04:35:41.583Z,89.70
2019-01-17T04:38:11.027Z,89.70
2019-01-17T04:40:40.453Z,89.90
2019-01-17T04:43:09.792Z,89.90
2019-01-17T04:45:39.200Z,89.80
2019-01-17T04:48:08.795Z,90.00
2019-01-17T04:50:38.197Z,89.90
2019-01-17T04:53:07.636Z,89.90
2019-01-17T04:55:37.055Z,90.00
2019-01-17T04:58:06.663Z,90.00
2019-01-17T05:00:36.082Z,90.00
2019-01-17T05:03:05.442Z,90.10
2019-01-17T05:05:34.917Z,90.00
2019-01-17T05:08:10.522Z,90.50
2019-01-17T05:10:40.093Z,90.20
2019-01-17T05:13:09.819Z,90.30
2019-01-17T05:15:39.209Z,90.40
2019-01-17T05:18:08.574Z,90.50
2019-01-17T05:20:37.984Z,90.50
2019-01-17T05:23:07.464Z,90.50
2019-01-17T05:25:36.926Z,90.80
2019-01-17T05:28:06.424Z,91.20
2019-01-17T05:30:38.607Z,91.00
2019-01-17T05:33:08.053Z,91.00
2019-01-17T05:35:37.501Z,91.10
2019-01-17T05:38:09.699Z,91.10
2019-01-17T05:40:39.175Z,91.30
2019-01-17T05:43:08.588Z,91.20
2019-01-17T05:45:38.061Z,91.20
2019-01-17T05:48:07.644Z,91.20
2019-01-17T05:50:37.160Z,91.20
2019-01-17T05:53:06.766Z,91.10
2019-01-17T05:55:38.957Z,91.20
2019-01-17T05:58:08.547Z,91.20
2019-01-17T06:00:37.983Z,91.30
2019-01-17T06:03:07.463Z,91.30
2019-01-17T06:05:36.835Z,91.10
2019-01-17T06:08:06.385Z,91.20
2019-01-17T06:10:35.727Z,91.20
2019-01-17T06:13:08.423Z,91.30
2019-01-17T06:15:38.192Z,91.30
2019-01-17T06:18:07.611Z,91.40
2019-01-17T06:20:36.972Z,91.40
2019-01-17T06:23:06.508Z,91.60
2019-01-17T06:25:35.928Z,91.80
2019-01-17T06:28:05.386Z,91.80
2019-01-17T06:30:34.790Z,91.90
2019-01-17T06:33:04.359Z,91.90
2019-01-17T06:35:33.761Z,91.70
2019-01-17T06:38:04.294Z,91.50
2019-01-17T06:40:33.914Z,91.50
2019-01-17T06:43:12.449Z,91.40
2019-01-17T06:45:41.819Z,91.30
2019-01-17T06:48:11.291Z,91.30
2019-01-17T06:50:40.749Z,91.00
2019-01-17T06:53:10.181Z,90.90
2019-01-17T06:55:39.564Z,90.90
2019-01-17T06:58:08.970Z,90.70
2019-01-17T07:00:39.788Z,90.40
2019-01-17T07:03:09.190Z,89.60
2019-01-17T07:05:38.581Z,89.20
2019-01-17T07:08:09.180Z,89.20
2019-01-17T07:10:38.620Z,89.10
2019-01-17T07:13:08.031Z,88.90
2019-01-17T07:15:37.618Z,88.40
2019-01-17T07:18:07.082Z,87.80
2019-01-17T07:20:36.468Z,86.00
2019-01-17T07:23:05.873Z,85.20
2019-01-17T07:25:40.882Z,83.40
2019-01-17T07:28:06.448Z,85.70
2019-01-17T07:30:41.918Z,83.90
2019-01-17T07:33:11.390Z,79.30
2019-01-17T07:35:40.776Z,76.80
2019-01-17T07:38:13.641Z,75.60
2019-01-17T07:40:42.985Z,75.50
2019-01-17T07:43:12.348Z,72.90
2019-01-17T07:45:42.058Z,75.00
2019-01-17T07:48:14.522Z,74.90
2019-01-17T07:50:43.914Z,75.00
2019-01-17T07:53:13.417Z,74.00
2019-01-17T07:55:47.563Z,75.60
2019-01-17T07:58:14.207Z,74.60
2019-01-17T08:00:43.696Z,75.00
2019-01-17T08:03:13.124Z,74.60
2019-01-17T08:05:42.731Z,75.40
2019-01-17T08:08:14.291Z,74.70
2019-01-17T08:10:43.657Z,74.90
2019-01-17T08:13:13.376Z,75.70
2019-01-17T08:15:42.784Z,75.60
2019-01-17T08:18:18.524Z,75.70
2019-01-17T08:20:43.275Z,76.20
2019-01-17T08:23:13.120Z,76.20
2019-01-17T08:25:42.520Z,75.90
2019-01-17T08:28:11.878Z,76.70
2019-01-17T08:30:41.225Z,76.40
2019-01-17T08:33:10.613Z,76.80
2019-01-17T08:35:40.107Z,76.70
2019-01-17T08:38:09.554Z,76.40
2019-01-17T08:40:38.902Z,76.10
2019-01-17T08:43:11.324Z,76.00
2019-01-17T08:45:40.651Z,76.80
2019-01-17T08:48:10.224Z,76.30
2019-01-17T08:50:39.605Z,75.60
2019-01-17T08:53:08.986Z,75.90
2019-01-17T08:55:38.341Z,75.80
2019-01-17T08:58:07.779Z,76.20
2019-01-17T09:00:37.294Z,76.80
2019-01-17T09:03:06.729Z,76.20
2019-01-17T09:05:36.112Z,75.70
2019-01-17T09:08:05.735Z,75.60
2019-01-17T09:10:35.235Z,75.40
2019-01-17T09:13:04.563Z,75.20
2019-01-17T09:15:35.406Z,76.10
2019-01-17T09:18:07.877Z,76.00
2019-01-17T09:20:37.235Z,75.60
2019-01-17T09:23:07.581Z,75.90
2019-01-17T09:25:39.380Z,78.00
2019-01-17T09:28:08.748Z,78.60
2019-01-17T09:30:39.990Z,78.20
2019-01-17T09:33:20.255Z,78.90
2019-01-17T09:35:49.958Z,80.00
2019-01-17T09:38:19.322Z,81.10
2019-01-17T09:40:48.691Z,80.80
2019-01-17T09:43:19.328Z,80.60
2019-01-17T09:45:48.872Z,80.10
2019-01-17T09:48:21.007Z,81.80
2019-01-17T09:50:50.474Z,81.50
2019-01-17T09:53:20.040Z,81.50
2019-01-17T09:55:49.475Z,81.20
2019-01-17T09:58:18.901Z,80.70
2019-01-17T10:00:49.663Z,81.30
2019-01-17T10:03:19.215Z,80.80
2019-01-17T10:05:51.170Z,80.30
2019-01-17T10:08:23.529Z,80.20
2019-01-17T10:10:52.990Z,80.10
2019-01-17T10:13:22.527Z,79.10
2019-01-17T10:16:24.262Z,79.50
2019-01-17T10:19:41.377Z,79.40
2019-01-17T10:23:03.364Z,80.20
2019-01-17T10:26:08.197Z,81.00
2019-01-17T10:29:22.442Z,80.60
2019-01-17T10:32:28.302Z,81.80
2019-01-17T10:35:33.924Z,82.50
2019-01-17T10:38:39.221Z,82.90
2019-01-17T10:41:42.381Z,84.00
2019-01-17T10:44:43.423Z,85.80
2019-01-17T10:48:05.519Z,85.90
2019-01-17T10:51:26.544Z,86.60
2019-01-17T10:54:25.476Z,86.50
2019-01-17T10:57:13.589Z,87.90
2019-01-17T11:00:23.642Z,88.30
2019-01-17T11:03:24.419Z,88.80
2019-01-17T11:06:41.622Z,88.60
2019-01-17T11:09:49.858Z,89.80
2019-01-17T11:12:52.401Z,90.30
2019-01-17T11:15:57.052Z,90.60
2019-01-17T11:19:12.771Z,91.10
2019-01-17T11:22:09.242Z,91.60
2019-01-17T11:25:21.429Z,91.40
2019-01-17T11:28:30.563Z,91.10
2019-01-17T11:31:40.822Z,90.80
2019-01-17T11:34:57.745Z,90.50
2019-01-17T11:38:17.244Z,90.50
2019-01-17T11:41:30.902Z,90.00
2019-01-17T11:44:31.593Z,90.30
2019-01-17T11:47:34.535Z,90.30
2019-01-17T11:50:40.601Z,90.80
2019-01-17T11:53:32.278Z,91.50
2019-01-17T11:56:31.914Z,91.70
2019-01-17T11:59:54.534Z,91.80
2019-01-17T12:02:47.175Z,91.50
2019-01-17T12:05:16.817Z,91.60
2019-01-17T12:07:46.247Z,91.40
2019-01-17T12:10:15.596Z,91.20
2019-01-17T12:12:45.167Z,91.10
2019-01-17T12:15:14.693Z,91.30
2019-01-17T12:17:44.091Z,91.40
2019-01-17T12:20:13.559Z,91.20
2019-01-17T12:22:43.224Z,91.40
2019-01-17T12:25:12.569Z,91.40
2019-01-17T12:27:42.714Z,91.50
2019-01-17T12:30:14.431Z,91.00
2019-01-17T12:32:44.093Z,91.00
2019-01-17T12:35:15.600Z,90.90
2019-01-17T12:37:44.990Z,91.30
2019-01-17T12:40:15.360Z,91.10
2019-01-17T12:42:44.836Z,90.50
2019-01-17T12:45:14.279Z,90.70
2019-01-17T12:47:43.699Z,90.90
2019-01-17T12:50:19.271Z,91.00
2019-01-17T12:52:48.716Z,90.80
2019-01-17T12:55:18.093Z,90.90
2019-01-17T12:57:47.600Z,90.90
2019-01-17T13:00:19.507Z,90.90
2019-01-17T13:02:48.895Z,90.90
2019-01-17T13:05:18.317Z,90.90
2019-01-17T13:07:47.773Z,90.70
2019-01-17T13:10:17.264Z,90.60
2019-01-17T13:12:46.933Z,90.70
2019-01-17T13:15:19.530Z,90.50
2019-01-17T13:17:48.982Z,90.60
2019-01-17T13:20:18.829Z,90.80
2019-01-17T13:22:48.183Z,90.70
2019-01-17T13:25:19.924Z,90.50
2019-01-17T13:27:49.369Z,90.60
2019-01-17T13:30:23.145Z,90.40
2019-01-17T13:32:52.775Z,90.20
2019-01-17T13:35:22.245Z,90.10
2019-01-17T13:37:51.682Z,89.00
2019-01-17T13:40:22.920Z,86.40
2019-01-17T13:42:52.477Z,85.40
2019-01-17T13:45:22.350Z,83.70
2019-01-17T13:47:51.825Z,84.20
2019-01-17T13:50:21.243Z,84.70
2019-01-17T13:52:50.751Z,85.40
2019-01-17T13:55:20.099Z,87.20
2019-01-17T13:57:49.498Z,85.90
2019-01-17T14:00:23.068Z,85.60
2019-01-17T14:02:52.485Z,86.10
2019-01-17T14:05:24.849Z,85.50
2019-01-17T14:07:54.510Z,85.50
2019-01-17T14:10:23.867Z,84.10
2019-01-17T14:12:56.326Z,84.70
2019-01-17T14:15:28.244Z,85.40
2019-01-17T14:18:00.830Z,85.00
2019-01-17T14:20:30.278Z,84.10
2019-01-17T14:22:59.691Z,82.70
2019-01-17T14:25:32.545Z,82.40
2019-01-17T14:28:01.954Z,83.60
2019-01-17T14:30:35.316Z,80.30
2019-01-17T14:33:04.715Z,80.70
2019-01-17T14:35:35.998Z,81.10
2019-01-17T14:38:05.520Z,82.10
2019-01-17T14:40:36.137Z,81.80
2019-01-17T14:43:05.544Z,82.00
2019-01-17T14:45:43.084Z,81.50
2019-01-17T14:48:14.225Z,83.20
2019-01-17T14:50:43.520Z,82.70
2019-01-17T14:53:12.957Z,82.10
2019-01-17T14:55:44.152Z,82.30
2019-01-17T14:58:14.024Z,82.00
2019-01-17T15:00:43.506Z,82.00
2019-01-17T15:03:13.034Z,82.00
2019-01-17T15:05:42.611Z,82.20
2019-01-17T15:08:12.129Z,82.40
2019-01-17T15:10:42.184Z,81.80
2019-01-17T15:13:11.704Z,83.10
2019-01-17T15:15:43.068Z,83.70
2019-01-17T15:18:12.713Z,82.40
2019-01-17T15:20:42.383Z,83.30
2019-01-17T15:23:13.801Z,84.30
2019-01-17T15:25:43.270Z,83.60
2019-01-17T15:28:12.679Z,81.50
2019-01-17T15:30:42.272Z,82.10
2019-01-17T15:33:11.902Z,82.40
2019-01-17T15:35:41.316Z,82.30
2019-01-17T15:38:10.716Z,82.70
2019-01-17T15:40:40.086Z,81.10
2019-01-17T15:43:09.517Z,80.70
2019-01-17T15:45:41.727Z,80.20
2019-01-17T15:48:11.138Z,78.00
2019-01-17T15:50:41.396Z,80.00
2019-01-17T15:53:13.128Z,78.60
2019-01-17T15:55:42.726Z,77.90
2019-01-17T15:58:12.187Z,78.20
2019-01-17T16:00:44.722Z,79.50
2019-01-17T16:03:14.215Z,78.00
2019-01-17T16:05:43.644Z,78.80
2019-01-17T16:08:13.112Z,79.30
2019-01-17T16:10:42.586Z,80.20
2019-01-17T16:13:12.016Z,79.80
2019-01-17T16:15:42.239Z,79.40
2019-01-17T16:18:11.621Z,80.40
2019-01-17T16:20:41.049Z,80.30
2019-01-17T16:23:10.526Z,79.40
2019-01-17T16:25:40.215Z,80.10
2019-01-17T16:28:09.572Z,80.70
2019-01-17T16:30:39.004Z,81.10
2019-01-17T16:33:08.464Z,81.90
2019-01-17T16:35:40.996Z,82.40
2019-01-17T16:38:10.399Z,83.00
2019-01-17T16:40:39.765Z,83.60
2019-01-17T16:43:09.199Z,84.20
2019-01-17T16:45:38.576Z,84.30
2019-01-17T16:48:08.043Z,84.70
2019-01-17T16:50:37.490Z,84.90
2019-01-17T16:53:07.012Z,84.80
2019-01-17T16:55:36.721Z,85.00
2019-01-17T16:58:07.388Z,86.60
2019-01-17T17:00:40.070Z,87.20
2019-01-17T17:03:09.516Z,87.80
2019-01-17T17:05:38.935Z,87.50
2019-01-17T17:08:08.570Z,87.00
2019-01-17T17:10:38.028Z,87.50
2019-01-17T17:13:07.482Z,88.00
2019-01-17T17:15:36.869Z,89.10
2019-01-17T17:18:06.362Z,89.20
2019-01-17T17:20:35.760Z,89.50
2019-01-17T17:23:05.241Z,88.80
2019-01-17T17:25:34.680Z,89.20
2019-01-17T17:28:04.490Z,88.70
2019-01-17T17:30:33.901Z,88.30
2019-01-17T17:33:03.585Z,88.70
2019-01-17T17:35:33.000Z,88.70
2019-01-17T17:38:02.427Z,88.80
2019-01-17T17:40:32.274Z,88.80
2019-01-17T17:43:01.646Z,88.80
2019-01-17T17:45:31.477Z,89.10
2019-01-17T17:48:02.272Z,89.20
2019-01-17T17:50:32.283Z,89.10
2019-01-17T17:53:01.907Z,89.10
2019-01-17T17:55:31.393Z,89.00
2019-01-17T17:58:02.232Z,88.50
2019-01-17T18:00:51.482Z,88.10
2019-01-17T18:03:20.929Z,87.50
2019-01-17T18:05:50.333Z,87.80
2019-01-17T18:08:19.716Z,87.00
2019-01-17T18:10:49.387Z,86.40
2019-01-17T18:13:18.815Z,86.70
2019-01-17T18:15:48.360Z,85.90
2019-01-17T18:18:17.900Z,84.70
2019-01-17T18:20:47.296Z,85.40
2019-01-17T18:23:16.793Z,84.80
2019-01-17T18:25:46.796Z,84.30
2019-01-17T18:28:16.284Z,84.40
2019-01-17T18:30:45.880Z,84.70
2019-01-17T18:33:15.350Z,84.70
2019-01-17T18:35:44.804Z,83.80
2019-01-17T18:38:14.228Z,84.10
2019-01-17T18:40:43.816Z,84.40
2019-01-17T18:43:13.304Z,84.10
2019-01-17T18:45:42.680Z,83.80
2019-01-17T18:48:12.116Z,83.80
2019-01-17T18:50:41.780Z,83.90
2019-01-17T18:53:11.377Z,83.90
2019-01-17T18:55:43.092Z,84.40
2019-01-17T18:58:15.622Z,84.60
2019-01-17T19:00:43.758Z,84.20
2019-01-17T19:03:13.154Z,84.20
2019-01-17T19:05:42.604Z,83.30
2019-01-17T19:08:13.161Z,81.70
2019-01-17T19:10:42.667Z,81.70
2019-01-17T19:13:12.163Z,80.90
2019-01-17T19:15:41.813Z,80.60
2019-01-17T19:18:11.225Z,79.80
2019-01-17T19:20:40.646Z,80.90
2019-01-17T19:23:10.208Z,80.50
2019-01-17T19:25:39.712Z,81.10
2019-01-17T19:28:09.333Z,81.20
2019-01-17T19:30:38.816Z,80.70
2019-01-17T19:33:08.662Z,80.50
2019-01-17T19:35:38.127Z,80.40
2019-01-17T19:38:07.637Z,81.30
2019-01-17T19:40:37.129Z,81.00
2019-01-17T19:43:06.652Z,81.00
2019-01-17T19:45:36.163Z,80.80
2019-01-17T19:48:05.690Z,80.80
2019-01-17T19:50:44.864Z,80.80
2019-01-17T19:53:14.251Z,80.70
2019-01-17T19:55:44.017Z,79.90
2019-01-17T19:58:13.526Z,79.90
2019-01-17T20:00:44.284Z,80.30
2019-01-17T20:03:13.854Z,80.10
2019-01-17T20:05:43.298Z,80.00
2019-01-17T20:08:12.710Z,79.20
2019-01-17T20:10:42.345Z,79.50
2019-01-17T20:13:11.767Z,79.70
2019-01-17T20:15:41.220Z,80.20
2019-01-17T20:18:10.591Z,79.10
2019-01-17T20:20:40.302Z,78.90
2019-01-17T20:23:09.763Z,79.30
2019-01-17T20:25:39.273Z,79.60
2019-01-17T20:28:08.874Z,79.20
2019-01-17T20:30:38.356Z,79.30
2019-01-17T20:33:08.764Z,79.10
2019-01-17T20:35:38.324Z,79.70
2019-01-17T20:38:08.051Z,79.20
2019-01-17T20:40:37.538Z,78.90
2019-01-17T20:43:07.371Z,78.80
2019-01-17T20:45:36.846Z,78.80
2019-01-17T20:48:06.567Z,79.10
2019-01-17T20:50:36.117Z,78.80
2019-01-17T20:53:06.084Z,78.70
2019-01-17T20:55:35.507Z,77.90
2019-01-17T20:58:05.337Z,78.40
2019-01-17T21:01:05.438Z,78.00
2019-01-17T21:03:35.315Z,77.90
2019-01-17T21:06:05.086Z,78.90
2019-01-17T21:08:34.464Z,78.70
2019-01-17T21:11:03.889Z,78.50
2019-01-17T21:13:33.347Z,78.90
2019-01-17T21:16:03.010Z,79.20
2019-01-17T21:18:32.434Z,79.60
2019-01-17T21:21:01.853Z,79.20
2019-01-17T21:23:31.265Z,79.60
2019-01-17T21:26:00.985Z,79.80
2019-01-17T21:28:30.461Z,80.00
2019-01-17T21:31:00.114Z,80.40
2019-01-17T21:33:29.567Z,80.80
2019-01-17T21:36:01.284Z,81.40
2019-01-17T21:38:31.062Z,81.30
2019-01-17T21:41:00.604Z,81.60
2019-01-17T21:43:32.972Z,81.80
2019-01-17T21:46:02.508Z,81.80
2019-01-17T21:48:31.966Z,82.10
2019-01-17T21:51:01.596Z,82.20
2019-01-17T21:53:31.087Z,82.70
2019-01-17T21:56:00.559Z,83.10
2019-01-17T21:58:29.964Z,83.50
2019-01-17T22:00:59.425Z,83.20
2019-01-17T22:03:28.986Z,83.70
2019-01-17T22:05:58.624Z,84.00
2019-01-17T22:08:28.153Z,84.50
2019-01-17T22:10:57.697Z,84.60
2019-01-17T22:13:27.143Z,84.90
2019-01-17T22:15:56.537Z,84.80
2019-01-17T22:18:26.148Z,85.00
2019-01-17T22:20:55.668Z,84.60
2019-01-17T22:23:25.099Z,84.40
2019-01-17T22:25:54.610Z,84.50
2019-01-17T22:28:25.184Z,83.70
2019-01-17T22:30:54.603Z,83.80
2019-01-17T22:33:24.005Z,83.90
2019-01-17T22:35:53.372Z,83.60
2019-01-17T22:38:22.911Z,83.90
2019-01-17T22:40:52.548Z,83.30
2019-01-17T22:43:22.147Z,82.90
2019-01-17T22:45:51.545Z,83.30
2019-01-17T22:48:21.032Z,82.70
2019-01-17T22:50:50.443Z,83.20
2019-01-17T22:53:19.997Z,83.10
2019-01-17T22:55:49.460Z,83.20
2019-01-17T22:58:18.875Z,84.00
2019-01-17T23:00:59.893Z,84.20
2019-01-17T23:03:40.816Z,83.80
2019-01-17T23:06:10.551Z,83.90
2019-01-17T23:08:40.019Z,84.10
2019-01-17T23:11:09.480Z,83.90
2019-01-17T23:13:38.939Z,83.30
2019-01-17T23:16:08.909Z,83.30
2019-01-17T23:18:38.600Z,83.10
2019-01-17T23:21:07.951Z,82.60
2019-01-17T23:23:38.441Z,82.60
2019-01-17T23:26:07.886Z,82.50
2019-01-17T23:28:37.952Z,83.30
2019-01-17T23:31:07.501Z,82.90
2019-01-17T23:33:37.037Z,81.60
2019-01-17T23:36:06.416Z,81.80
2019-01-17T23:38:35.942Z,81.90
2019-01-17T23:41:05.565Z,81.10
2019-01-17T23:43:35.047Z,81.50
2019-01-17T23:46:04.450Z,81.50
2019-01-17T23:48:34.186Z,81.00
2019-01-17T23:51:03.638Z,81.60
2019-01-17T23:53:33.178Z,83.10
2019-01-17T23:56:02.915Z,85.40
2019-01-17T23:58:32.333Z,87.40
